createdAt,value
2017-06-28T00:00:02.897Z,15.4
2017-06-28T00:00:33.185Z,15.4
2017-06-28T00:01:04.282Z,15.4
2017-06-28T00:01:34.301Z,15.4
2017-06-28T00:02:04.825Z,15.4
2017-06-28T00:02:35.357Z,15.4
2017-06-28T00:03:59.740Z,15.4
2017-06-28T00:04:58.964Z,15.3
2017-06-28T00:05:58.172Z,15.4
2017-06-28T00:06:58.153Z,15.3
2017-06-28T00:07:56.865Z,15.3
2017-06-28T00:08:56.089Z,15.3
2017-06-28T00:09:55.298Z,15.3
2017-06-28T00:10:55.006Z,15.3
2017-06-28T00:11:54.098Z,15.3
2017-06-28T00:12:53.549Z,15.3
2017-06-28T00:13:52.770Z,15.3
2017-06-28T00:15:51.376Z,15.3
2017-06-28T00:16:50.466Z,15.3
2017-06-28T00:17:49.698Z,15.3
2017-06-28T00:18:49.443Z,15.3
2017-06-28T00:19:48.422Z,15.3
2017-06-28T00:20:47.603Z,15.2
2017-06-28T00:21:46.699Z,15.2
2017-06-28T00:22:46.412Z,15.2
2017-06-28T00:24:45.146Z,15.2
2017-06-28T00:25:43.871Z,15.2
2017-06-28T00:26:43.087Z,15.2
2017-06-28T00:27:42.306Z,15.2
2017-06-28T00:28:42.029Z,15.2
2017-06-28T00:29:41.240Z,15.2
2017-06-28T00:30:40.707Z,15.2
2017-06-28T00:31:39.413Z,15.2
2017-06-28T00:32:39.569Z,15.2
2017-06-28T00:33:38.299Z,15.2
2017-06-28T00:34:37.523Z,15.2
2017-06-28T00:35:36.735Z,15.2
2017-06-28T00:36:36.187Z,15.2
2017-06-28T00:37:35.411Z,15.2
2017-06-28T00:38:34.632Z,15.2
2017-06-28T00:39:33.852Z,15.2
2017-06-28T00:40:32.836Z,15.2
2017-06-28T00:41:32.434Z,15.2
2017-06-28T00:42:03.609Z,15.2
2017-06-28T00:42:33.002Z,15.2
2017-06-28T00:43:31.219Z,15.1
2017-06-28T00:45:29.323Z,15.1
2017-06-28T00:46:29.035Z,15.1
2017-06-28T00:47:28.260Z,15.2
2017-06-28T00:48:27.354Z,15.1
2017-06-28T00:49:26.502Z,15.2
2017-06-28T00:50:25.719Z,15.1
2017-06-28T00:51:24.934Z,15.1
2017-06-28T00:52:24.648Z,15.1
2017-06-28T00:53:24.115Z,15.1
2017-06-28T00:54:23.216Z,15.1
2017-06-28T00:55:22.441Z,15.1
2017-06-28T00:56:21.695Z,15.1
2017-06-28T00:57:20.913Z,15.1
2017-06-28T00:58:20.003Z,15.1
2017-06-28T00:59:20.431Z,15.1
2017-06-28T01:00:18.727Z,15.1
2017-06-28T01:01:17.938Z,15.1
2017-06-28T01:02:17.039Z,15.1
2017-06-28T01:03:16.242Z,15.1
2017-06-28T01:04:15.832Z,15.1
2017-06-28T01:05:15.175Z,15.1
2017-06-28T01:06:14.383Z,15
2017-06-28T01:07:13.600Z,15
2017-06-28T01:08:12.701Z,15
2017-06-28T01:09:12.501Z,15
2017-06-28T01:10:11.221Z,15
2017-06-28T01:11:10.995Z,15
2017-06-28T01:12:09.701Z,15
2017-06-28T01:13:09.977Z,15
2017-06-28T01:14:08.682Z,15
2017-06-28T01:15:07.896Z,15
2017-06-28T01:16:06.986Z,15
2017-06-28T01:17:06.437Z,15
2017-06-28T01:18:05.703Z,15
2017-06-28T01:19:04.797Z,14.9
2017-06-28T01:20:03.769Z,14.9
2017-06-28T01:21:03.482Z,14.9
2017-06-28T01:22:02.747Z,14.9
2017-06-28T01:23:02.272Z,14.9
2017-06-28T01:24:00.973Z,14.9
2017-06-28T01:25:00.175Z,14.9
2017-06-28T01:25:59.889Z,14.9
2017-06-28T01:26:58.865Z,14.9
2017-06-28T01:27:58.087Z,14.9
2017-06-28T01:28:57.557Z,14.9
2017-06-28T01:29:56.788Z,14.9
2017-06-28T01:30:55.889Z,14.9
2017-06-28T01:31:55.106Z,14.8
2017-06-28T01:32:54.716Z,14.9
2017-06-28T01:33:53.929Z,14.8
2017-06-28T01:34:53.392Z,14.9
2017-06-28T01:35:52.595Z,14.8
2017-06-28T01:36:51.690Z,14.8
2017-06-28T01:37:50.889Z,14.8
2017-06-28T01:38:50.094Z,14.8
2017-06-28T01:39:49.324Z,14.8
2017-06-28T01:40:48.799Z,14.8
2017-06-28T01:41:48.049Z,14.8
2017-06-28T01:42:47.139Z,14.8
2017-06-28T01:43:46.738Z,14.8
2017-06-28T01:44:45.946Z,14.8
2017-06-28T01:45:45.027Z,14.7
2017-06-28T01:46:44.485Z,14.7
2017-06-28T01:47:43.687Z,14.7
2017-06-28T01:48:42.896Z,14.7
2017-06-28T01:49:13.321Z,14.7
2017-06-28T01:49:43.852Z,14.7
2017-06-28T01:50:14.463Z,14.7
2017-06-28T01:50:44.990Z,14.7
2017-06-28T01:51:15.512Z,14.7
2017-06-28T01:52:40.036Z,14.7
2017-06-28T01:53:39.330Z,14.7
2017-06-28T01:54:38.563Z,14.7
2017-06-28T01:55:37.545Z,14.7
2017-06-28T01:56:36.768Z,14.7
2017-06-28T01:57:36.070Z,14.7
2017-06-28T01:58:35.549Z,14.6
2017-06-28T01:59:34.765Z,14.6
2017-06-28T02:00:34.026Z,14.6
2017-06-28T02:01:33.303Z,14.6
2017-06-28T02:02:32.396Z,14.6
2017-06-28T02:03:32.104Z,14.6
2017-06-28T02:04:31.563Z,14.6
2017-06-28T02:05:30.265Z,14.6
2017-06-28T02:06:29.483Z,14.6
2017-06-28T02:07:28.698Z,14.6
2017-06-28T02:08:28.408Z,14.6
2017-06-28T02:09:27.634Z,14.6
2017-06-28T02:10:27.108Z,14.6
2017-06-28T02:11:25.821Z,14.6
2017-06-28T02:12:25.040Z,14.5
2017-06-28T02:13:24.259Z,14.5
2017-06-28T02:14:23.970Z,14.5
2017-06-28T02:15:23.064Z,14.6
2017-06-28T02:16:22.527Z,14.5
2017-06-28T02:18:21.011Z,14.5
2017-06-28T02:19:20.250Z,14.5
2017-06-28T02:20:19.463Z,14.5
2017-06-28T02:21:18.631Z,14.5
2017-06-28T02:22:18.103Z,14.5
2017-06-28T02:23:17.322Z,14.5
2017-06-28T02:24:16.426Z,14.5
2017-06-28T02:25:15.641Z,14.5
2017-06-28T02:26:14.804Z,14.5
2017-06-28T02:27:14.008Z,14.5
2017-06-28T02:28:13.467Z,14.5
2017-06-28T02:29:12.558Z,14.5
2017-06-28T02:30:11.774Z,14.5
2017-06-28T02:31:10.998Z,14.5
2017-06-28T02:32:10.222Z,14.5
2017-06-28T02:33:09.940Z,14.5
2017-06-28T02:34:09.394Z,14.4
2017-06-28T02:35:08.104Z,14.4
2017-06-28T02:36:07.320Z,14.4
2017-06-28T02:37:06.538Z,14.4
2017-06-28T02:38:06.259Z,14.4
2017-06-28T02:39:05.475Z,14.4
2017-06-28T02:40:04.879Z,14.4
2017-06-28T02:41:03.595Z,14.4
2017-06-28T02:42:02.809Z,14.4
2017-06-28T02:43:02.536Z,14.4
2017-06-28T02:44:01.637Z,14.4
2017-06-28T02:45:00.858Z,14.4
2017-06-28T02:46:00.895Z,14.4
2017-06-28T02:46:59.104Z,14.4
2017-06-28T02:47:58.809Z,14.4
2017-06-28T02:48:58.028Z,14.4
2017-06-28T02:49:57.251Z,14.4
2017-06-28T02:50:56.459Z,14.4
2017-06-28T02:51:55.921Z,14.4
2017-06-28T02:52:55.135Z,14.3
2017-06-28T02:53:54.345Z,14.4
2017-06-28T02:54:53.439Z,14.4
2017-06-28T02:55:52.541Z,14.3
2017-06-28T02:56:51.749Z,14.3
2017-06-28T02:57:51.215Z,14.4
2017-06-28T02:58:50.428Z,14.4
2017-06-28T02:59:20.719Z,14.4
2017-06-28T02:59:51.253Z,14.3
2017-06-28T03:00:21.782Z,14.3
2017-06-28T03:00:52.298Z,14.3
2017-06-28T03:01:22.827Z,14.3
2017-06-28T03:02:47.588Z,14.3
2017-06-28T03:03:46.818Z,14.4
2017-06-28T03:04:45.924Z,14.3
2017-06-28T03:05:45.137Z,14.3
2017-06-28T03:06:44.341Z,14.3
2017-06-28T03:07:43.547Z,14.3
2017-06-28T03:08:42.766Z,14.3
2017-06-28T03:09:42.740Z,14.3
2017-06-28T03:10:41.462Z,14.3
2017-06-28T03:11:40.682Z,14.3
2017-06-28T03:12:39.901Z,14.4
2017-06-28T03:13:39.182Z,14.3
2017-06-28T03:14:38.657Z,14.3
2017-06-28T03:15:38.121Z,14.3
2017-06-28T03:16:36.841Z,14.4
2017-06-28T03:17:36.117Z,14.4
2017-06-28T03:18:35.349Z,14.4
2017-06-28T03:19:34.737Z,14.4
2017-06-28T03:20:33.712Z,14.4
2017-06-28T03:21:33.676Z,14.4
2017-06-28T03:22:32.783Z,14.4
2017-06-28T03:23:31.995Z,14.4
2017-06-28T03:24:31.099Z,14.4
2017-06-28T03:25:30.197Z,14.4
2017-06-28T03:26:29.409Z,14.4
2017-06-28T03:27:28.873Z,14.4
2017-06-28T03:28:28.096Z,14.4
2017-06-28T03:29:27.190Z,14.4
2017-06-28T03:30:26.476Z,14.4
2017-06-28T03:31:26.647Z,14.4
2017-06-28T03:33:24.489Z,14.4
2017-06-28T03:34:23.581Z,14.4
2017-06-28T03:35:22.779Z,14.4
2017-06-28T03:36:22.382Z,14.4
2017-06-28T03:37:22.155Z,14.4
2017-06-28T03:38:20.868Z,14.4
2017-06-28T03:39:20.344Z,14.4
2017-06-28T03:40:19.051Z,14.4
2017-06-28T03:41:18.277Z,14.4
2017-06-28T03:42:17.501Z,14.4
2017-06-28T03:43:16.721Z,14.4
2017-06-28T03:44:15.941Z,14.5
2017-06-28T03:45:15.799Z,14.5
2017-06-28T03:46:14.520Z,14.5
2017-06-28T03:47:13.722Z,14.5
2017-06-28T03:48:13.317Z,14.5
2017-06-28T03:49:12.582Z,14.5
2017-06-28T03:50:11.794Z,14.5
2017-06-28T03:51:11.269Z,14.5
2017-06-28T03:52:09.984Z,14.6
2017-06-28T03:53:09.704Z,14.6
2017-06-28T03:54:08.908Z,14.6
2017-06-28T03:55:08.113Z,14.6
2017-06-28T03:57:06.962Z,14.7
2017-06-28T03:58:05.671Z,14.7
2017-06-28T03:59:04.874Z,14.7
2017-06-28T04:00:04.051Z,14.8
2017-06-28T04:02:02.702Z,14.8
2017-06-28T04:03:02.440Z,14.8
2017-06-28T04:04:01.061Z,14.8
2017-06-28T04:05:00.782Z,14.8
2017-06-28T04:05:59.876Z,14.9
2017-06-28T04:06:59.087Z,14.9
2017-06-28T04:07:58.309Z,14.9
2017-06-28T04:09:57.722Z,15
2017-06-28T04:10:55.995Z,15
2017-06-28T04:11:55.090Z,15.1
2017-06-28T04:12:54.782Z,15.1
2017-06-28T04:13:53.998Z,15.1
2017-06-28T04:14:53.101Z,15.1
2017-06-28T04:15:52.579Z,15.2
2017-06-28T04:16:51.666Z,15.2
2017-06-28T04:17:50.880Z,15.2
2017-06-28T04:18:50.090Z,15.3
2017-06-28T04:19:49.306Z,15.3
2017-06-28T04:20:48.389Z,15.3
2017-06-28T04:21:48.359Z,15.3
2017-06-28T04:22:46.988Z,15.4
2017-06-28T04:23:46.483Z,15.4
2017-06-28T04:24:45.586Z,15.4
2017-06-28T04:25:44.796Z,15.4
2017-06-28T04:26:44.404Z,15.5
2017-06-28T04:28:43.273Z,15.5
2017-06-28T04:29:41.988Z,15.6
2017-06-28T04:30:41.203Z,15.6
2017-06-28T04:31:40.414Z,15.6
2017-06-28T04:32:40.137Z,15.7
2017-06-28T04:33:39.342Z,15.7
2017-06-28T04:34:38.687Z,15.8
2017-06-28T04:35:37.657Z,15.8
2017-06-28T04:36:36.928Z,15.8
2017-06-28T04:37:36.015Z,15.9
2017-06-28T04:38:35.729Z,15.9
2017-06-28T04:39:34.954Z,16
2017-06-28T04:40:34.422Z,16
2017-06-28T04:41:33.139Z,16
2017-06-28T04:42:32.225Z,16
2017-06-28T04:43:31.815Z,16
2017-06-28T04:44:30.899Z,16
2017-06-28T04:45:30.652Z,16
2017-06-28T04:46:30.106Z,16.1
2017-06-28T04:47:00.198Z,16.1
2017-06-28T04:48:28.164Z,16.1
2017-06-28T04:49:27.381Z,16.1
2017-06-28T04:50:26.855Z,16.1
2017-06-28T04:51:26.064Z,16.1
2017-06-28T04:52:25.295Z,16.1
2017-06-28T04:53:24.515Z,16.1
2017-06-28T04:54:23.618Z,16.1
2017-06-28T04:55:23.337Z,16.1
2017-06-28T04:56:22.433Z,16.1
2017-06-28T04:57:21.637Z,16.1
2017-06-28T04:58:21.103Z,16.1
2017-06-28T05:00:19.724Z,16.1
2017-06-28T05:01:18.938Z,16.1
2017-06-28T05:02:18.149Z,16.1
2017-06-28T05:03:17.414Z,16.1
2017-06-28T05:04:16.759Z,16.1
2017-06-28T05:05:15.866Z,16.1
2017-06-28T05:06:15.297Z,16.2
2017-06-28T05:07:14.509Z,16.2
2017-06-28T05:08:13.717Z,16.1
2017-06-28T05:09:12.941Z,16.2
2017-06-28T05:10:12.412Z,16.2
2017-06-28T05:11:11.507Z,16.2
2017-06-28T05:12:10.719Z,16.2
2017-06-28T05:13:10.438Z,16.2
2017-06-28T05:14:09.647Z,16.2
2017-06-28T05:15:08.858Z,16.2
2017-06-28T05:16:08.311Z,16.2
2017-06-28T05:16:38.332Z,16.2
2017-06-28T05:17:08.847Z,16.3
2017-06-28T05:17:39.375Z,16.3
2017-06-28T05:19:05.756Z,16.3
2017-06-28T05:20:05.347Z,16.3
2017-06-28T05:21:04.515Z,16.4
2017-06-28T05:22:04.037Z,16.4
2017-06-28T05:23:03.256Z,16.4
2017-06-28T05:24:02.546Z,16.4
2017-06-28T05:25:01.761Z,16.5
2017-06-28T05:26:01.560Z,16.5
2017-06-28T05:27:00.226Z,16.6
2017-06-28T05:27:59.706Z,16.6
2017-06-28T05:28:58.918Z,16.7
2017-06-28T05:29:58.224Z,16.7
2017-06-28T05:31:56.831Z,16.7
2017-06-28T05:32:56.041Z,16.8
2017-06-28T05:33:55.503Z,16.8
2017-06-28T05:34:54.605Z,16.8
2017-06-28T05:35:53.818Z,16.8
2017-06-28T05:36:53.039Z,16.9
2017-06-28T05:37:52.236Z,16.9
2017-06-28T05:38:22.757Z,16.9
2017-06-28T05:38:53.274Z,16.9
2017-06-28T05:39:23.556Z,16.9
2017-06-28T05:40:50.444Z,17
2017-06-28T05:41:49.415Z,17
2017-06-28T05:42:49.013Z,17
2017-06-28T05:43:47.995Z,17
2017-06-28T05:44:47.345Z,17.1
2017-06-28T05:45:46.554Z,17.1
2017-06-28T05:46:45.767Z,17.1
2017-06-28T05:47:45.523Z,17.1
2017-06-28T05:48:44.619Z,17.2
2017-06-28T05:49:43.831Z,17.2
2017-06-28T05:50:43.865Z,17.2
2017-06-28T05:51:42.460Z,17.2
2017-06-28T05:52:41.670Z,17.2
2017-06-28T05:53:40.843Z,17.2
2017-06-28T05:54:40.566Z,17.2
2017-06-28T05:55:39.770Z,17.3
2017-06-28T05:56:39.243Z,17.3
2017-06-28T05:57:38.244Z,17.3
2017-06-28T05:58:08.770Z,17.3
2017-06-28T06:00:35.948Z,17.3
2017-06-28T06:01:35.676Z,17.3
2017-06-28T06:02:35.191Z,17.3
2017-06-28T06:03:33.892Z,17.4
2017-06-28T06:04:33.651Z,17.4
2017-06-28T06:05:32.627Z,17.3
2017-06-28T06:06:31.839Z,17.3
2017-06-28T06:07:31.062Z,17.3
2017-06-28T06:08:31.083Z,17.3
2017-06-28T06:09:29.706Z,17.3
2017-06-28T06:10:29.306Z,17.4
2017-06-28T06:11:28.158Z,17.4
2017-06-28T06:12:27.757Z,17.4
2017-06-28T06:13:26.983Z,17.4
2017-06-28T06:14:26.847Z,17.4
2017-06-28T06:15:25.825Z,17.4
2017-06-28T06:16:25.035Z,17.4
2017-06-28T06:17:24.132Z,17.5
2017-06-28T06:18:23.844Z,17.5
2017-06-28T06:19:23.068Z,17.5
2017-06-28T06:20:22.586Z,17.6
2017-06-28T06:21:21.375Z,17.6
2017-06-28T06:22:20.598Z,17.6
2017-06-28T06:23:20.314Z,17.7
2017-06-28T06:24:19.602Z,17.7
2017-06-28T06:25:18.817Z,17.8
2017-06-28T06:26:18.270Z,17.8
2017-06-28T06:27:17.268Z,17.8
2017-06-28T06:28:16.487Z,17.8
2017-06-28T06:29:16.089Z,17.9
2017-06-28T06:30:15.301Z,17.9
2017-06-28T06:31:14.510Z,18
2017-06-28T06:32:14.357Z,18
2017-06-28T06:33:13.368Z,18
2017-06-28T06:34:12.591Z,18.1
2017-06-28T06:35:11.817Z,18.1
2017-06-28T06:36:10.918Z,18.2
2017-06-28T06:37:10.633Z,18.2
2017-06-28T06:38:10.063Z,18.3
2017-06-28T06:39:09.271Z,18.3
2017-06-28T06:40:08.252Z,18.4
2017-06-28T06:41:07.962Z,18.4
2017-06-28T06:42:06.939Z,18.4
2017-06-28T06:43:06.039Z,18.4
2017-06-28T06:44:06.036Z,18.5
2017-06-28T06:45:05.148Z,18.6
2017-06-28T06:46:04.257Z,18.6
2017-06-28T06:47:03.544Z,18.7
2017-06-28T06:48:02.754Z,18.8
2017-06-28T06:49:02.403Z,18.8
2017-06-28T06:50:01.874Z,18.9
2017-06-28T06:51:00.854Z,18.9
2017-06-28T06:52:00.070Z,19
2017-06-28T06:52:59.777Z,19.1
2017-06-28T06:53:58.988Z,19.2
2017-06-28T06:54:58.108Z,19.3
2017-06-28T06:55:58.080Z,19.3
2017-06-28T06:56:56.793Z,19.4
2017-06-28T06:57:56.506Z,19.4
2017-06-28T06:59:55.117Z,19.6
2017-06-28T07:00:54.336Z,19.7
2017-06-28T07:01:53.795Z,19.7
2017-06-28T07:02:53.014Z,19.8
2017-06-28T07:03:52.234Z,19.8
2017-06-28T07:04:51.451Z,19.9
2017-06-28T07:05:51.178Z,19.9
2017-06-28T07:06:21.715Z,19.9
2017-06-28T07:06:52.236Z,19.9
2017-06-28T07:07:22.765Z,19.9
2017-06-28T07:08:49.160Z,20
2017-06-28T07:09:48.264Z,20
2017-06-28T07:10:47.869Z,20
2017-06-28T07:11:47.086Z,20
2017-06-28T07:12:46.568Z,20
2017-06-28T07:13:45.782Z,20
2017-06-28T07:14:45.000Z,19.9
2017-06-28T07:15:44.231Z,19.9
2017-06-28T07:16:43.885Z,19.9
2017-06-28T07:17:42.989Z,19.9
2017-06-28T07:18:42.466Z,19.9
2017-06-28T07:19:41.690Z,19.9
2017-06-28T07:20:41.279Z,19.8
2017-06-28T07:21:40.371Z,19.9
2017-06-28T07:22:39.965Z,19.9
2017-06-28T07:23:39.062Z,19.8
2017-06-28T07:24:38.685Z,19.9
2017-06-28T07:25:37.723Z,19.9
2017-06-28T07:26:37.319Z,19.9
2017-06-28T07:27:36.416Z,19.8
2017-06-28T07:28:36.129Z,19.8
2017-06-28T07:29:35.230Z,19.8
2017-06-28T07:30:34.704Z,19.9
2017-06-28T07:31:33.925Z,19.8
2017-06-28T07:32:33.145Z,19.8
2017-06-28T07:33:32.803Z,19.8
2017-06-28T07:34:31.888Z,19.8
2017-06-28T07:35:31.475Z,19.9
2017-06-28T07:36:30.828Z,19.9
2017-06-28T07:37:29.921Z,19.9
2017-06-28T07:39:28.904Z,19.9
2017-06-28T07:40:28.114Z,19.9
2017-06-28T07:41:27.330Z,19.9
2017-06-28T07:42:27.188Z,20.1
2017-06-28T07:43:26.296Z,20.1
2017-06-28T07:44:25.523Z,20.1
2017-06-28T07:45:25.803Z,20.1
2017-06-28T07:46:24.512Z,20.1
2017-06-28T07:47:23.721Z,20.1
2017-06-28T07:48:23.190Z,20.1
2017-06-28T07:49:22.403Z,20.1
2017-06-28T07:50:21.612Z,20.2
2017-06-28T07:51:21.320Z,20.2
2017-06-28T07:52:20.533Z,20.2
2017-06-28T07:53:19.818Z,20.2
2017-06-28T07:54:19.275Z,20.2
2017-06-28T07:55:18.489Z,20.2
2017-06-28T07:56:17.970Z,20.3
2017-06-28T07:56:48.502Z,20.3
2017-06-28T07:58:16.680Z,20.4
2017-06-28T07:59:15.901Z,20.4
2017-06-28T08:00:15.751Z,20.5
2017-06-28T08:01:14.967Z,20.6
2017-06-28T08:02:14.093Z,20.5
2017-06-28T08:04:13.083Z,20.6
2017-06-28T08:05:12.197Z,20.6
2017-06-28T08:06:11.669Z,20.6
2017-06-28T08:07:10.955Z,20.6
2017-06-28T08:08:10.175Z,20.7
2017-06-28T08:09:09.888Z,20.7
2017-06-28T08:10:08.979Z,20.7
2017-06-28T08:10:39.510Z,20.7
2017-06-28T08:12:08.041Z,20.8
2017-06-28T08:13:07.248Z,20.9
2017-06-28T08:14:06.470Z,20.9
2017-06-28T08:15:06.063Z,20.9
2017-06-28T08:16:05.156Z,20.9
2017-06-28T08:16:35.566Z,20.9
2017-06-28T08:17:05.970Z,21
2017-06-28T08:17:36.493Z,21
2017-06-28T08:18:07.013Z,21
2017-06-28T08:19:03.268Z,21
2017-06-28T08:20:02.863Z,21.1
2017-06-28T08:21:02.223Z,21.1
2017-06-28T08:22:01.328Z,21.2
2017-06-28T08:23:01.289Z,21.2
2017-06-28T08:24:00.146Z,21.2
2017-06-28T08:24:59.861Z,21.4
2017-06-28T08:25:59.135Z,21.4
2017-06-28T08:26:58.340Z,21.4
2017-06-28T08:27:57.930Z,21.5
2017-06-28T08:28:57.224Z,21.5
2017-06-28T08:29:56.496Z,21.5
2017-06-28T08:30:56.475Z,21.5
2017-06-28T08:32:54.465Z,21.6
2017-06-28T08:33:54.067Z,21.6
2017-06-28T08:34:53.921Z,21.6
2017-06-28T08:35:53.143Z,21.6
2017-06-28T08:36:52.362Z,21.6
2017-06-28T08:37:51.974Z,21.6
2017-06-28T08:38:51.188Z,21.7
2017-06-28T08:39:50.163Z,21.8
2017-06-28T08:40:50.050Z,21.8
2017-06-28T08:41:49.258Z,21.9
2017-06-28T08:42:48.743Z,21.9
2017-06-28T08:43:47.892Z,22
2017-06-28T08:44:47.490Z,22
2017-06-28T08:45:46.691Z,22.1
2017-06-28T08:46:46.652Z,22.1
2017-06-28T08:47:45.865Z,22.1
2017-06-28T08:48:45.076Z,22.2
2017-06-28T08:49:44.278Z,22.2
2017-06-28T08:50:44.003Z,22.3
2017-06-28T08:51:42.987Z,22.3
2017-06-28T08:52:42.836Z,22.4
2017-06-28T08:53:41.928Z,22.4
2017-06-28T08:54:41.208Z,22.4
2017-06-28T08:55:40.804Z,22.5
2017-06-28T08:57:39.417Z,22.6
2017-06-28T08:58:39.276Z,22.7
2017-06-28T08:59:38.486Z,22.7
2017-06-28T09:00:09.009Z,22.7
2017-06-28T09:00:39.525Z,22.8
2017-06-28T09:01:37.234Z,22.8
2017-06-28T09:02:36.447Z,22.9
2017-06-28T09:03:36.172Z,22.9
2017-06-28T09:04:35.634Z,22.9
2017-06-28T09:05:34.729Z,22.9
2017-06-28T09:06:34.478Z,23
2017-06-28T09:07:33.562Z,23.1
2017-06-28T09:09:32.535Z,23.1
2017-06-28T09:10:32.024Z,23.1
2017-06-28T09:11:31.239Z,23.2
2017-06-28T09:12:30.836Z,23.2
2017-06-28T09:13:30.048Z,23.2
2017-06-28T09:14:29.766Z,23.2
2017-06-28T09:15:28.985Z,23.2
2017-06-28T09:16:28.961Z,23.2
2017-06-28T09:17:27.661Z,23.2
2017-06-28T09:18:27.134Z,23.2
2017-06-28T09:19:26.613Z,23.3
2017-06-28T09:20:26.320Z,23.3
2017-06-28T09:20:56.798Z,23.3
2017-06-28T09:21:27.203Z,23.3
2017-06-28T09:21:57.725Z,23.3
2017-06-28T09:22:28.248Z,23.4
2017-06-28T09:23:24.437Z,23.5
2017-06-28T09:24:23.650Z,23.5
2017-06-28T09:25:23.368Z,23.6
2017-06-28T09:26:22.845Z,23.6
2017-06-28T09:27:22.299Z,23.6
2017-06-28T09:28:21.520Z,23.6
2017-06-28T09:29:21.239Z,23.6
2017-06-28T09:30:20.363Z,23.7
2017-06-28T09:32:19.461Z,23.7
2017-06-28T09:33:18.869Z,23.7
2017-06-28T09:34:17.972Z,23.7
2017-06-28T09:35:17.701Z,23.7
2017-06-28T09:36:16.911Z,23.8
2017-06-28T09:37:16.628Z,23.8
2017-06-28T09:38:15.829Z,23.9
2017-06-28T09:39:15.685Z,23.8
2017-06-28T09:40:14.905Z,23.9
2017-06-28T09:41:14.388Z,23.8
2017-06-28T09:42:13.500Z,23.9
2017-06-28T09:43:13.107Z,23.9
2017-06-28T09:44:12.408Z,24
2017-06-28T09:45:12.375Z,24.1
2017-06-28T09:46:11.593Z,24.1
2017-06-28T09:47:10.687Z,24.1
2017-06-28T09:48:10.286Z,24.2
2017-06-28T09:49:09.898Z,24.1
2017-06-28T09:50:09.112Z,24.1
2017-06-28T09:51:08.948Z,24.1
2017-06-28T09:52:08.179Z,24.1
2017-06-28T09:53:07.386Z,24.1
2017-06-28T09:54:07.112Z,24
2017-06-28T09:55:06.331Z,24
2017-06-28T09:56:06.054Z,24
2017-06-28T09:57:05.516Z,23.9
2017-06-28T09:58:04.736Z,23.9
2017-06-28T09:59:04.460Z,23.9
2017-06-28T10:00:03.830Z,23.6
2017-06-28T10:01:03.040Z,23.6
2017-06-28T10:02:02.826Z,23.5
2017-06-28T10:03:02.283Z,23.4
2017-06-28T10:04:01.384Z,23.3
2017-06-28T10:05:01.001Z,23.2
2017-06-28T10:06:00.730Z,23.1
2017-06-28T10:06:59.943Z,23
2017-06-28T10:07:59.413Z,22.9
2017-06-28T10:08:58.881Z,22.9
2017-06-28T10:09:58.483Z,22.8
2017-06-28T10:10:57.727Z,22.7
2017-06-28T10:11:57.335Z,22.6
2017-06-28T10:12:56.309Z,22.6
2017-06-28T10:13:55.919Z,22.5
2017-06-28T10:14:55.921Z,22.4
2017-06-28T10:15:55.146Z,22.4
2017-06-28T10:16:54.366Z,22.3
2017-06-28T10:17:54.078Z,22.2
2017-06-28T10:18:24.496Z,22.2
2017-06-28T10:19:52.788Z,21.9
2017-06-28T10:20:52.739Z,21.8
2017-06-28T10:21:51.955Z,21.7
2017-06-28T10:22:51.166Z,21.5
2017-06-28T10:23:50.438Z,21.2
2017-06-28T10:24:50.021Z,21.2
2017-06-28T10:25:49.242Z,21.1
2017-06-28T10:26:49.087Z,21
2017-06-28T10:27:48.445Z,20.9
2017-06-28T10:28:47.535Z,20.9
2017-06-28T10:29:47.247Z,20.8
2017-06-28T10:30:46.339Z,20.8
2017-06-28T10:31:45.821Z,20.8
2017-06-28T10:32:45.668Z,20.8
2017-06-28T10:33:44.761Z,20.7
2017-06-28T10:34:44.478Z,20.6
2017-06-28T10:35:43.583Z,20.6
2017-06-28T10:36:43.062Z,20.6
2017-06-28T10:37:42.527Z,20.5
2017-06-28T10:39:41.888Z,20.5
2017-06-28T10:40:41.104Z,20.5
2017-06-28T10:41:40.249Z,20.5
2017-06-28T10:42:39.856Z,20.5
2017-06-28T10:43:38.954Z,20.5
2017-06-28T10:44:38.682Z,20.5
2017-06-28T10:45:38.142Z,20.5
2017-06-28T10:46:37.357Z,20.4
2017-06-28T10:47:36.959Z,20.4
2017-06-28T10:48:36.434Z,20.4
2017-06-28T10:49:35.446Z,20.4
2017-06-28T10:50:35.166Z,20.4
2017-06-28T10:51:34.516Z,20.4
2017-06-28T10:52:33.722Z,20.4
2017-06-28T10:53:33.435Z,20.4
2017-06-28T10:54:32.734Z,20.3
2017-06-28T10:55:31.940Z,20.3
2017-06-28T10:56:31.409Z,20.3
2017-06-28T10:57:31.375Z,20.3
2017-06-28T10:58:30.583Z,20.2
2017-06-28T10:59:29.794Z,20.2
2017-06-28T11:00:28.890Z,20.2
2017-06-28T11:01:28.250Z,20.2
2017-06-28T11:02:27.966Z,20.2
2017-06-28T11:03:27.806Z,20.1
2017-06-28T11:04:26.519Z,20.2
2017-06-28T11:05:26.242Z,20.1
2017-06-28T11:06:25.336Z,20.1
2017-06-28T11:07:25.054Z,20.1
2017-06-28T11:08:24.374Z,20.1
2017-06-28T11:09:23.851Z,20.1
2017-06-28T11:10:23.513Z,20.1
2017-06-28T11:11:22.675Z,20.1
2017-06-28T11:12:21.786Z,20.1
2017-06-28T11:13:21.502Z,20.1
2017-06-28T11:14:20.740Z,20.1
2017-06-28T11:15:20.591Z,20
2017-06-28T11:16:19.800Z,20
2017-06-28T11:17:19.021Z,20
2017-06-28T11:18:18.123Z,20
2017-06-28T11:19:17.848Z,20
2017-06-28T11:20:17.069Z,20
2017-06-28T11:21:17.026Z,20
2017-06-28T11:21:47.037Z,20
2017-06-28T11:22:17.443Z,20
2017-06-28T11:23:15.146Z,20
2017-06-28T11:24:14.874Z,20
2017-06-28T11:25:13.975Z,19.9
2017-06-28T11:26:13.714Z,20
2017-06-28T11:27:13.178Z,19.9
2017-06-28T11:28:12.389Z,19.9
2017-06-28T11:29:11.488Z,19.9
2017-06-28T11:30:11.089Z,19.9
2017-06-28T11:30:41.684Z,19.9
2017-06-28T11:32:10.087Z,19.9
2017-06-28T11:33:09.559Z,19.9
2017-06-28T11:34:08.659Z,19.9
2017-06-28T11:36:07.261Z,19.9
2017-06-28T11:37:06.854Z,19.9
2017-06-28T11:38:05.949Z,19.9
2017-06-28T11:39:05.942Z,20
2017-06-28T11:40:05.160Z,20
2017-06-28T11:41:04.257Z,20
2017-06-28T11:42:03.850Z,20
2017-06-28T11:43:03.006Z,20
2017-06-28T11:44:02.608Z,20.1
2017-06-28T11:45:01.958Z,20.1
2017-06-28T11:46:01.555Z,20.1
2017-06-28T11:47:00.830Z,20.1
2017-06-28T11:48:00.037Z,20.2
2017-06-28T11:48:59.243Z,20.2
2017-06-28T11:49:58.952Z,20.2
2017-06-28T11:50:58.423Z,20.3
2017-06-28T11:51:57.639Z,20.3
2017-06-28T11:52:57.242Z,20.3
2017-06-28T11:53:56.452Z,20.3
2017-06-28T11:54:55.674Z,20.4
2017-06-28T11:55:55.272Z,20.4
2017-06-28T11:56:54.740Z,20.5
2017-06-28T11:57:53.959Z,20.6
2017-06-28T11:58:53.221Z,20.5
2017-06-28T11:59:52.821Z,20.6
2017-06-28T12:00:52.033Z,20.6
2017-06-28T12:01:52.305Z,20.7
2017-06-28T12:02:51.039Z,20.8
2017-06-28T12:03:50.253Z,20.8
2017-06-28T12:04:49.729Z,20.9
2017-06-28T12:05:49.213Z,20.9
2017-06-28T12:06:48.311Z,21
2017-06-28T12:07:48.023Z,21
2017-06-28T12:08:47.759Z,21.1
2017-06-28T12:09:46.483Z,21.2
2017-06-28T12:10:46.198Z,21.2
2017-06-28T12:11:45.410Z,21.3
2017-06-28T12:13:44.530Z,21.5
2017-06-28T12:14:43.999Z,21.6
2017-06-28T12:15:43.099Z,21.7
2017-06-28T12:16:42.320Z,21.8
2017-06-28T12:17:42.052Z,21.8
2017-06-28T12:18:12.578Z,21.8
2017-06-28T12:18:43.026Z,21.9
2017-06-28T12:19:41.152Z,22
2017-06-28T12:20:40.670Z,22
2017-06-28T12:21:39.386Z,22
2017-06-28T12:22:38.853Z,22
2017-06-28T12:23:38.449Z,22.1
2017-06-28T12:24:37.666Z,22.1
2017-06-28T12:25:37.380Z,22.2
2017-06-28T12:26:36.730Z,22.3
2017-06-28T12:27:35.925Z,22.4
2017-06-28T12:28:35.350Z,22.6
2017-06-28T12:29:34.832Z,22.7
2017-06-28T12:30:33.945Z,22.7
2017-06-28T12:31:33.668Z,22.7
2017-06-28T12:32:33.138Z,22.6
2017-06-28T12:33:32.349Z,22.6
2017-06-28T12:34:32.065Z,22.6
2017-06-28T12:35:31.157Z,22.5
2017-06-28T12:36:30.757Z,22.4
2017-06-28T12:37:30.241Z,22.3
2017-06-28T12:38:29.713Z,22.4
2017-06-28T12:39:00.111Z,22.4
2017-06-28T12:39:30.629Z,22.3
2017-06-28T12:40:01.722Z,22.3
2017-06-28T12:40:31.843Z,22.3
2017-06-28T12:41:28.033Z,22.3
2017-06-28T12:42:27.239Z,22.3
2017-06-28T12:43:26.958Z,22.3
2017-06-28T12:44:26.423Z,22.3
2017-06-28T12:45:25.625Z,22.4
2017-06-28T12:46:25.255Z,22.4
2017-06-28T12:47:24.467Z,22.3
2017-06-28T12:48:24.076Z,22.3
2017-06-28T12:49:23.294Z,22.3
2017-06-28T12:50:23.268Z,22.2
2017-06-28T12:51:22.485Z,22.3
2017-06-28T12:52:21.583Z,22.3
2017-06-28T12:53:21.292Z,22.3
2017-06-28T12:54:20.516Z,22.3
2017-06-28T12:55:20.136Z,22.3
2017-06-28T12:56:19.874Z,22.2
2017-06-28T12:57:19.089Z,22.2
2017-06-28T12:58:18.833Z,22.1
2017-06-28T12:58:48.730Z,22.1
2017-06-28T13:00:17.015Z,22.1
2017-06-28T13:01:16.600Z,22.1
2017-06-28T13:02:16.064Z,22.2
2017-06-28T13:03:15.279Z,22.2
2017-06-28T13:04:15.005Z,22.2
2017-06-28T13:05:14.289Z,22.3
2017-06-28T13:06:13.654Z,22.4
2017-06-28T13:07:13.367Z,22.5
2017-06-28T13:08:12.789Z,22.7
2017-06-28T13:09:11.901Z,23
2017-06-28T13:10:11.629Z,23.4
2017-06-28T13:11:10.848Z,23.4
2017-06-28T13:12:10.448Z,23.6
2017-06-28T13:13:09.619Z,23.9
2017-06-28T13:14:09.586Z,24.1
2017-06-28T13:15:08.803Z,24.2
2017-06-28T13:16:07.944Z,24.2
2017-06-28T13:17:07.665Z,24.2